createdAt,value
2023-02-12T00:01:29.974Z,34.53
2023-02-12T00:03:58.280Z,31.05
2023-02-12T00:06:27.323Z,29.35
2023-02-12T00:08:56.193Z,31.23
2023-02-12T00:11:26.822Z,31.55
2023-02-12T00:16:25.280Z,31.27
2023-02-12T00:21:22.172Z,33.63
2023-02-12T00:23:50.058Z,31.23
2023-02-12T00:26:20.435Z,33.42
2023-02-12T00:28:51.537Z,30.85
2023-02-12T00:31:25.747Z,32.50
2023-02-12T00:33:54.206Z,32.20
2023-02-12T00:36:24.196Z,30.05
2023-02-12T00:38:54.112Z,27.55
2023-02-12T00:41:22.724Z,30.85
2023-02-12T00:43:50.616Z,31.05
2023-02-12T00:46:18.776Z,32.63
2023-02-12T00:48:46.723Z,32.90
2023-02-12T00:51:14.855Z,29.50
2023-02-12T00:53:42.580Z,30.70
2023-02-12T00:56:10.299Z,27.90
2023-02-12T00:58:38.039Z,29.17
2023-02-12T01:01:07.796Z,31.98
2023-02-12T01:03:36.810Z,29.45
2023-02-12T01:06:06.100Z,30.52
2023-02-12T01:08:33.961Z,30.60
2023-02-12T01:11:04.821Z,29.42
2023-02-12T01:13:35.035Z,27.85
2023-02-12T01:16:14.775Z,29.02
2023-02-12T01:18:42.420Z,28.63
2023-02-12T01:21:16.467Z,30.02
2023-02-12T01:23:45.322Z,34.00
2023-02-12T01:26:14.084Z,28.70
2023-02-12T01:28:43.748Z,33.65
2023-02-12T01:31:18.661Z,30.98
2023-02-12T01:33:51.001Z,30.42
2023-02-12T01:36:19.229Z,30.88
2023-02-12T01:38:49.921Z,29.50
2023-02-12T01:41:21.678Z,35.88
2023-02-12T01:44:16.375Z,30.88
2023-02-12T01:46:46.147Z,30.50
2023-02-12T01:49:18.356Z,32.88
2023-02-12T01:51:47.040Z,31.38
2023-02-12T01:54:17.288Z,32.53
2023-02-12T01:56:45.100Z,34.08
2023-02-12T01:59:13.330Z,30.08
2023-02-12T02:01:41.204Z,36.85
2023-02-12T02:04:14.005Z,26.40
2023-02-12T02:07:03.664Z,20.90
2023-02-12T02:09:35.272Z,25.17
2023-02-12T02:12:21.219Z,29.10
2023-02-12T02:14:50.996Z,29.42
2023-02-12T02:17:34.695Z,28.10
2023-02-12T02:20:26.863Z,30.73
2023-02-12T02:23:06.731Z,29.92
2023-02-12T02:26:11.986Z,27.80
2023-02-12T02:29:04.174Z,31.30
2023-02-12T02:31:46.631Z,28.15
2023-02-12T02:34:43.659Z,29.92
2023-02-12T02:37:39.129Z,27.55
2023-02-12T02:40:11.482Z,28.77
2023-02-12T02:42:47.314Z,28.08
2023-02-12T02:45:39.711Z,29.63
2023-02-12T02:48:43.188Z,26.30
2023-02-12T02:51:21.781Z,25.88
2023-02-12T02:53:55.132Z,27.25
2023-02-12T02:56:24.631Z,28.73
2023-02-12T02:58:59.684Z,28.80
2023-02-12T03:01:40.576Z,25.40
2023-02-12T03:04:20.083Z,28.38
2023-02-12T03:07:13.652Z,27.95
2023-02-12T03:10:06.109Z,26.73
2023-02-12T03:12:38.539Z,29.40
2023-02-12T03:15:15.077Z,26.08
2023-02-12T03:17:46.818Z,27.92
2023-02-12T03:20:28.808Z,29.55
2023-02-12T03:23:01.631Z,26.30
2023-02-12T03:25:35.476Z,29.38
2023-02-12T03:28:19.283Z,26.27
2023-02-12T03:31:12.850Z,27.05
2023-02-12T03:34:15.940Z,27.52
2023-02-12T03:37:00.930Z,26.42
2023-02-12T03:39:52.163Z,27.23
2023-02-12T03:45:17.316Z,28.23
2023-02-12T03:47:50.058Z,27.35
2023-02-12T03:50:44.317Z,28.38
2023-02-12T03:53:12.394Z,27.05
2023-02-12T03:55:45.904Z,29.48
2023-02-12T03:58:21.432Z,25.15
2023-02-12T04:00:49.219Z,30.45
2023-02-12T04:03:16.895Z,28.98
2023-02-12T04:05:44.588Z,31.95
2023-02-12T04:08:13.142Z,36.10
2023-02-12T04:10:49.562Z,29.33
2023-02-12T04:13:38.732Z,28.25
2023-02-12T04:16:33.218Z,29.13
2023-02-12T04:19:01.960Z,28.05
2023-02-12T04:22:00.036Z,29.13
2023-02-12T04:24:54.926Z,27.80
2023-02-12T04:27:40.398Z,29.38
2023-02-12T04:30:21.570Z,31.73
2023-02-12T04:33:04.256Z,30.52
2023-02-12T04:35:56.782Z,31.85
2023-02-12T04:38:31.116Z,37.30
2023-02-12T04:41:00.420Z,29.00
2023-02-12T04:43:36.622Z,29.73
2023-02-12T04:46:07.241Z,28.27
2023-02-12T04:48:37.402Z,26.00
2023-02-12T04:51:06.119Z,30.25
2023-02-12T04:53:39.980Z,26.65
2023-02-12T04:56:13.283Z,29.75
2023-02-12T04:58:41.766Z,27.63
2023-02-12T05:01:10.348Z,27.90
2023-02-12T05:03:38.574Z,28.60
2023-02-12T05:06:08.162Z,25.70
2023-02-12T05:08:36.175Z,27.03
2023-02-12T05:11:09.086Z,24.48
2023-02-12T05:13:36.899Z,24.92
2023-02-12T05:16:08.820Z,26.20
2023-02-12T05:18:36.458Z,24.83
2023-02-12T05:21:07.069Z,27.05
2023-02-12T05:26:07.730Z,26.55
2023-02-12T05:28:35.438Z,26.88
2023-02-12T05:31:06.042Z,25.45
2023-02-12T05:33:33.782Z,24.25
2023-02-12T05:36:10.250Z,23.90
2023-02-12T05:38:38.039Z,27.25
2023-02-12T05:41:10.645Z,23.85
2023-02-12T05:43:38.568Z,24.83
2023-02-12T05:46:07.176Z,23.75
2023-02-12T05:48:35.772Z,22.55
2023-02-12T05:51:25.346Z,34.40
2023-02-12T05:53:57.095Z,24.20
2023-02-12T05:56:27.058Z,25.75
2023-02-12T05:59:07.555Z,25.13
2023-02-12T06:01:41.743Z,26.40
2023-02-12T06:04:17.558Z,26.73
2023-02-12T06:06:45.889Z,25.40
2023-02-12T06:09:14.290Z,26.13
2023-02-12T06:11:42.289Z,28.55
2023-02-12T06:14:14.336Z,22.42
2023-02-12T06:16:44.311Z,25.70
2023-02-12T06:19:12.335Z,23.63
2023-02-12T06:21:39.954Z,26.90
2023-02-12T06:24:08.138Z,24.33
2023-02-12T06:26:35.816Z,21.65
2023-02-12T06:29:03.574Z,24.58
2023-02-12T06:31:33.793Z,28.02
2023-02-12T06:34:07.223Z,25.50
2023-02-12T06:36:37.665Z,27.73
2023-02-12T06:39:06.474Z,26.67
2023-02-12T06:41:34.607Z,22.08
2023-02-12T06:44:02.274Z,27.25
2023-02-12T06:46:30.036Z,23.63
2023-02-12T06:49:00.327Z,24.13
2023-02-12T06:51:29.390Z,24.85
2023-02-12T06:53:57.796Z,25.33
2023-02-12T06:56:26.693Z,28.17
2023-02-12T06:59:01.167Z,22.92
2023-02-12T07:01:30.102Z,19.83
2023-02-12T07:04:03.325Z,25.50
2023-02-12T07:06:34.184Z,21.85
2023-02-12T07:09:02.621Z,25.45
2023-02-12T07:11:34.907Z,24.05
2023-02-12T07:14:04.512Z,21.98
2023-02-12T07:16:32.317Z,27.25
2023-02-12T07:19:00.107Z,25.33
2023-02-12T07:21:27.689Z,25.08
2023-02-12T07:23:55.450Z,26.17
2023-02-12T07:26:23.997Z,23.13
2023-02-12T07:28:51.857Z,25.85
2023-02-12T07:31:23.225Z,23.58
2023-02-12T07:33:56.013Z,23.42
2023-02-12T07:36:24.314Z,22.83
2023-02-12T07:38:52.367Z,22.50
2023-02-12T07:41:24.912Z,21.67
2023-02-12T07:44:12.485Z,22.05
2023-02-12T07:47:26.414Z,21.58
2023-02-12T07:49:58.532Z,20.02
2023-02-12T07:52:26.361Z,23.30
2023-02-12T07:58:10.802Z,19.42
2023-02-12T08:00:53.952Z,21.08
2023-02-12T08:03:38.724Z,23.40
2023-02-12T08:11:26.648Z,20.35
2023-02-12T08:14:48.042Z,18.15
2023-02-12T08:17:17.558Z,21.45
2023-02-12T08:24:26.747Z,18.42
2023-02-12T08:26:54.910Z,19.95
2023-02-12T08:29:33.310Z,19.42
2023-02-12T08:32:03.033Z,17.02
2023-02-12T08:37:24.324Z,16.02
2023-02-12T08:40:14.174Z,14.98
2023-02-12T08:43:02.649Z,14.60
2023-02-12T08:45:31.034Z,15.88
2023-02-12T08:48:28.225Z,16.38
2023-02-12T08:54:54.796Z,14.68
2023-02-12T08:57:23.458Z,16.73
2023-02-12T09:03:34.166Z,16.30
2023-02-12T09:06:09.263Z,21.10
2023-02-12T09:08:49.924Z,17.15
2023-02-12T09:11:30.743Z,17.58
2023-02-12T09:14:04.793Z,20.70
2023-02-12T09:16:38.565Z,22.88
2023-02-12T09:19:13.611Z,19.83
2023-02-12T09:21:41.792Z,14.82
2023-02-12T09:24:10.558Z,15.18
2023-02-12T09:26:39.993Z,15.23
2023-02-12T09:29:08.190Z,15.40
2023-02-12T09:31:36.239Z,14.02
2023-02-12T09:34:11.405Z,14.88
2023-02-12T09:36:39.283Z,13.45
2023-02-12T09:42:21.701Z,14.57
2023-02-12T09:44:52.538Z,14.85
2023-02-12T09:47:53.409Z,17.55
2023-02-12T09:52:59.372Z,14.63
2023-02-12T09:55:31.189Z,9.73
2023-02-12T09:58:04.378Z,10.15
2023-02-12T10:00:32.776Z,11.32
2023-02-12T10:03:06.001Z,11.57
2023-02-12T10:05:45.005Z,6.90
2023-02-12T10:08:15.865Z,6.95
2023-02-12T10:11:10.107Z,6.55
2023-02-12T10:13:59.288Z,7.82
2023-02-12T10:17:04.567Z,7.93
2023-02-12T10:19:57.673Z,7.45
2023-02-12T10:22:56.371Z,4.82
2023-02-12T10:25:54.649Z,5.07
2023-02-12T10:28:31.619Z,5.78
2023-02-12T10:31:03.836Z,4.70
2023-02-12T10:33:49.000Z,5.47
2023-02-12T10:36:42.453Z,4.05
2023-02-12T10:39:10.189Z,6.20
2023-02-12T10:42:02.082Z,3.85
2023-02-12T10:44:30.372Z,4.63
2023-02-12T10:46:58.272Z,4.90
2023-02-12T10:49:26.791Z,5.60
2023-02-12T10:51:57.743Z,9.20
2023-02-12T10:54:33.551Z,5.85
2023-02-12T10:57:19.165Z,5.82
2023-02-12T10:59:48.915Z,6.45
2023-02-12T11:02:36.955Z,8.23
2023-02-12T11:05:24.399Z,5.70
2023-02-12T11:07:52.767Z,3.33
2023-02-12T11:10:25.993Z,4.70
2023-02-12T11:12:53.953Z,5.47
2023-02-12T11:15:27.180Z,6.25
2023-02-12T11:18:07.842Z,7.90
2023-02-12T11:20:48.945Z,4.30
2023-02-12T11:23:39.675Z,3.72
2023-02-12T11:26:22.612Z,5.15
2023-02-12T11:28:58.320Z,5.75
2023-02-12T11:31:32.326Z,5.50
2023-02-12T11:34:21.880Z,5.38
2023-02-12T11:36:54.562Z,5.05
2023-02-12T11:39:30.318Z,5.45
2023-02-12T11:42:16.200Z,7.07
2023-02-12T11:44:58.724Z,4.63
2023-02-12T11:47:36.853Z,5.88
2023-02-12T11:50:17.745Z,5.60
2023-02-12T11:52:50.574Z,5.93
2023-02-12T11:55:33.421Z,4.25
2023-02-12T11:58:17.885Z,5.32
2023-02-12T12:01:13.686Z,4.03
2023-02-12T12:04:07.834Z,4.97
2023-02-12T12:06:47.148Z,3.63
2023-02-12T12:09:57.390Z,3.45
2023-02-12T12:13:05.778Z,6.43
2023-02-12T12:16:06.360Z,4.53
2023-02-12T12:19:29.219Z,4.65
2023-02-12T12:22:14.146Z,5.47
2023-02-12T12:24:53.360Z,6.18
2023-02-12T12:28:03.448Z,5.57
2023-02-12T12:30:39.681Z,6.20
2023-02-12T12:33:15.557Z,4.57
2023-02-12T12:35:57.882Z,8.32
2023-02-12T12:38:39.982Z,3.80
2023-02-12T12:41:29.636Z,4.47
2023-02-12T12:49:32.313Z,3.60
2023-02-12T12:52:49.776Z,3.53
2023-02-12T13:00:28.171Z,7.57
2023-02-12T13:03:17.277Z,4.18
2023-02-12T13:05:48.667Z,5.63
2023-02-12T13:08:42.863Z,5.45
2023-02-12T13:11:30.636Z,6.43
2023-02-12T13:14:29.761Z,6.38
2023-02-12T13:17:09.102Z,9.38
2023-02-12T13:19:44.056Z,3.78
2023-02-12T13:22:24.208Z,2.35
2023-02-12T13:25:12.147Z,4.50
2023-02-12T13:27:42.389Z,3.15
2023-02-12T13:30:22.212Z,6.03
2023-02-12T13:33:17.011Z,6.03
2023-02-12T13:35:49.559Z,5.50
2023-02-12T13:38:34.548Z,5.70
2023-02-12T13:41:13.142Z,4.40
2023-02-12T13:43:56.197Z,7.05
2023-02-12T13:46:50.022Z,6.43
2023-02-12T13:49:38.478Z,5.35
2023-02-12T13:52:19.725Z,9.15
2023-02-12T13:55:16.649Z,5.38
2023-02-12T13:57:47.328Z,5.60
2023-02-12T14:00:50.459Z,6.57
2023-02-12T14:03:25.401Z,6.17
2023-02-12T14:06:15.544Z,5.80
2023-02-12T14:08:50.618Z,8.43
2023-02-12T14:11:24.749Z,9.52
2023-02-12T14:14:03.710Z,7.45
2023-02-12T14:16:34.652Z,12.98
2023-02-12T14:19:52.731Z,17.08
2023-02-12T14:22:26.578Z,14.48
2023-02-12T14:24:58.910Z,9.10
2023-02-12T14:27:56.180Z,21.02
2023-02-12T14:30:39.029Z,16.48
2023-02-12T14:33:08.147Z,14.98
2023-02-12T14:35:45.003Z,7.43
2023-02-12T14:38:12.894Z,6.90
2023-02-12T14:40:47.124Z,8.48
2023-02-12T14:43:33.588Z,7.65
2023-02-12T14:46:23.028Z,8.55
2023-02-12T14:49:06.193Z,7.85
2023-02-12T14:51:37.357Z,7.10
2023-02-12T14:54:13.720Z,11.13
2023-02-12T14:56:48.274Z,10.70
2023-02-12T14:59:21.006Z,13.30
2023-02-12T15:01:50.354Z,14.48
2023-02-12T15:04:26.938Z,15.55
2023-02-12T15:07:01.341Z,15.32
2023-02-12T15:09:51.695Z,12.68
2023-02-12T15:12:26.776Z,16.27
2023-02-12T15:15:08.910Z,14.25
2023-02-12T15:17:41.393Z,11.80
2023-02-12T15:20:21.173Z,11.20
2023-02-12T15:22:49.719Z,15.57
2023-02-12T15:28:21.769Z,12.27
2023-02-12T15:30:50.953Z,11.88
2023-02-12T15:33:36.131Z,10.77
2023-02-12T15:36:05.105Z,13.15
2023-02-12T15:38:41.810Z,10.85
2023-02-12T15:41:23.707Z,11.40
2023-02-12T15:43:54.487Z,10.65
2023-02-12T15:46:22.998Z,13.60
2023-02-12T15:48:51.437Z,11.95
2023-02-12T15:51:19.278Z,11.57
2023-02-12T15:53:47.969Z,11.68
2023-02-12T15:56:20.686Z,16.13
2023-02-12T15:58:57.846Z,15.80
2023-02-12T16:01:31.644Z,10.85
2023-02-12T16:04:02.666Z,15.20
2023-02-12T16:06:34.517Z,16.30
2023-02-12T16:09:04.000Z,12.60
2023-02-12T16:11:32.804Z,10.70
2023-02-12T16:14:18.255Z,10.43
2023-02-12T16:16:51.035Z,13.00
2023-02-12T16:20:00.963Z,9.50
2023-02-12T16:22:37.776Z,9.07
2023-02-12T16:25:14.260Z,12.77
2023-02-12T16:27:53.212Z,8.57
2023-02-12T16:30:26.895Z,10.13
2023-02-12T16:32:55.582Z,13.68
2023-02-12T16:35:27.358Z,10.52
2023-02-12T16:38:21.228Z,15.95
2023-02-12T16:41:20.498Z,18.60
2023-02-12T16:43:51.476Z,14.50
2023-02-12T16:46:19.864Z,16.27
2023-02-12T16:48:52.656Z,14.60
2023-02-12T16:51:33.110Z,14.93
2023-02-12T16:54:03.487Z,18.05
2023-02-12T16:56:37.961Z,15.32
2023-02-12T16:59:06.350Z,10.63
2023-02-12T17:01:36.425Z,15.30
2023-02-12T17:04:13.285Z,10.38
2023-02-12T17:06:43.636Z,11.55
2023-02-12T17:09:11.997Z,11.40
2023-02-12T17:11:39.900Z,14.63
2023-02-12T17:14:14.642Z,11.88
2023-02-12T17:16:45.670Z,16.55
2023-02-12T17:19:14.095Z,11.13
2023-02-12T17:21:46.527Z,16.25
2023-02-12T17:24:16.350Z,13.13
2023-02-12T17:26:44.336Z,11.23
2023-02-12T17:29:12.632Z,14.63
2023-02-12T17:31:40.572Z,16.77
2023-02-12T17:34:08.641Z,17.50
2023-02-12T17:36:36.696Z,13.65
2023-02-12T17:39:06.607Z,23.95
2023-02-12T17:41:34.965Z,13.73
2023-02-12T17:44:03.084Z,16.25
2023-02-12T17:46:31.073Z,16.92
2023-02-12T17:48:59.599Z,16.92
2023-02-12T17:51:30.080Z,18.42
2023-02-12T17:53:57.770Z,17.65
2023-02-12T17:57:01.798Z,14.13
2023-02-12T18:00:10.569Z,17.40
2023-02-12T18:06:03.108Z,15.40
2023-02-12T18:08:31.926Z,16.65
2023-02-12T18:11:04.509Z,16.10
2023-02-12T18:13:32.424Z,14.70
2023-02-12T18:16:00.863Z,14.65
2023-02-12T18:18:28.665Z,11.90
2023-02-12T18:20:56.748Z,10.63
2023-02-12T18:23:24.932Z,9.48
2023-02-12T18:25:53.134Z,9.38
2023-02-12T18:28:21.692Z,11.98
2023-02-12T18:30:57.782Z,15.00
2023-02-12T18:33:26.296Z,12.48
2023-02-12T18:36:12.802Z,18.52
2023-02-12T18:38:42.176Z,13.20
2023-02-12T18:41:12.935Z,14.52
2023-02-12T18:46:24.564Z,12.95
2023-02-12T18:48:52.739Z,14.82
2023-02-12T18:51:23.126Z,20.40
2023-02-12T18:53:56.193Z,24.27
2023-02-12T18:56:24.007Z,35.58
2023-02-12T18:58:56.170Z,20.20
2023-02-12T19:01:24.595Z,15.43
2023-02-12T19:03:59.105Z,18.90
2023-02-12T19:06:31.939Z,18.15
2023-02-12T19:09:03.320Z,18.58
2023-02-12T19:11:31.911Z,21.10
2023-02-12T19:13:59.702Z,18.25
2023-02-12T19:16:28.133Z,21.67
2023-02-12T19:19:01.679Z,19.67
2023-02-12T19:21:33.423Z,19.80
2023-02-12T19:24:03.417Z,20.13
2023-02-12T19:26:33.389Z,17.77
2023-02-12T19:29:02.009Z,18.33
2023-02-12T19:31:35.646Z,19.02
2023-02-12T19:34:07.394Z,22.42
2023-02-12T19:36:39.890Z,22.52
2023-02-12T19:39:08.020Z,22.23
2023-02-12T19:41:41.013Z,21.98
2023-02-12T19:44:15.947Z,19.52
2023-02-12T19:46:45.686Z,23.25
2023-02-12T19:49:34.382Z,22.95
2023-02-12T19:52:02.276Z,22.02
2023-02-12T19:54:30.077Z,23.00
2023-02-12T19:56:57.956Z,21.77
2023-02-12T19:59:27.283Z,24.75
2023-02-12T20:01:56.618Z,21.75
2023-02-12T20:04:25.486Z,22.77
2023-02-12T20:06:53.552Z,24.05
2023-02-12T20:09:22.492Z,26.45
2023-02-12T20:11:53.792Z,24.45
2023-02-12T20:14:22.924Z,23.42
2023-02-12T20:16:58.542Z,27.73
2023-02-12T20:19:30.153Z,25.25
2023-02-12T20:22:03.504Z,26.30
2023-02-12T20:24:42.139Z,29.13
2023-02-12T20:27:11.205Z,24.50
2023-02-12T20:29:49.415Z,25.05
2023-02-12T20:32:17.510Z,25.70
2023-02-12T20:34:50.836Z,26.38
2023-02-12T20:37:20.073Z,26.52
2023-02-12T20:39:48.217Z,26.83
2023-02-12T20:42:16.097Z,25.63
2023-02-12T20:44:43.973Z,23.40
2023-02-12T20:47:11.915Z,24.90
2023-02-12T20:49:40.137Z,26.40
2023-02-12T20:52:09.088Z,25.35
2023-02-12T20:54:43.412Z,24.50
2023-02-12T20:57:14.172Z,23.50
2023-02-12T21:02:15.242Z,26.73
2023-02-12T21:04:43.282Z,26.73
2023-02-12T21:07:11.652Z,25.48
2023-02-12T21:09:40.416Z,27.95
2023-02-12T21:12:34.987Z,26.20
2023-02-12T21:15:06.684Z,28.00
2023-02-12T21:17:34.943Z,29.27
2023-02-12T21:20:06.660Z,28.40
2023-02-12T21:22:35.472Z,26.95
2023-02-12T21:25:04.288Z,26.75
2023-02-12T21:27:32.934Z,29.38
2023-02-12T21:30:01.015Z,29.20
2023-02-12T21:32:38.269Z,28.02
2023-02-12T21:35:14.399Z,29.70
2023-02-12T21:37:51.599Z,30.70
2023-02-12T21:40:35.325Z,27.90
2023-02-12T21:43:05.631Z,27.00
2023-02-12T21:45:33.724Z,28.85
2023-02-12T21:48:01.773Z,30.00
2023-02-12T21:50:32.292Z,28.40
2023-02-12T21:53:01.706Z,27.27
2023-02-12T21:55:30.012Z,28.52
2023-02-12T21:57:57.764Z,25.98
2023-02-12T22:00:25.676Z,28.90
2023-02-12T22:02:53.485Z,34.28
2023-02-12T22:05:21.833Z,29.73
2023-02-12T22:07:51.089Z,30.63
2023-02-12T22:10:19.138Z,32.53
2023-02-12T22:12:46.890Z,36.75
2023-02-12T22:15:14.810Z,36.28
2023-02-12T22:17:42.670Z,35.40
2023-02-12T22:20:11.187Z,32.38
2023-02-12T22:22:39.174Z,35.88
2023-02-12T22:25:06.949Z,36.95
2023-02-12T22:27:34.988Z,44.85
2023-02-12T22:30:03.350Z,41.10
2023-02-12T22:32:31.425Z,44.92
2023-02-12T22:34:59.214Z,47.70
2023-02-12T22:37:26.879Z,48.28
2023-02-12T22:39:54.605Z,46.47
2023-02-12T22:42:22.370Z,42.78
2023-02-12T22:44:50.105Z,45.65
2023-02-12T22:47:17.734Z,46.33
2023-02-12T22:49:45.437Z,49.53
2023-02-12T22:52:13.173Z,51.35
2023-02-12T22:54:41.208Z,52.38
2023-02-12T22:57:09.227Z,44.63
2023-02-12T22:59:36.977Z,47.50
2023-02-12T23:02:04.697Z,50.33
2023-02-12T23:04:32.478Z,51.35
2023-02-12T23:07:00.299Z,49.38
2023-02-12T23:09:28.086Z,47.97
2023-02-12T23:11:55.736Z,45.13
2023-02-12T23:14:23.658Z,48.30
2023-02-12T23:16:51.406Z,47.08
2023-02-12T23:19:19.298Z,50.28
2023-02-12T23:21:47.115Z,51.67
2023-02-12T23:24:15.263Z,57.03
2023-02-12T23:26:43.384Z,53.70
2023-02-12T23:29:11.514Z,50.42
2023-02-12T23:31:39.442Z,54.30
2023-02-12T23:34:07.300Z,52.70
2023-02-12T23:36:35.126Z,58.97
2023-02-12T23:39:05.846Z,49.58
2023-02-12T23:41:33.744Z,50.83
2023-02-12T23:44:01.458Z,54.85
2023-02-12T23:46:29.111Z,57.22
2023-02-12T23:48:56.737Z,54.72
2023-02-12T23:51:24.448Z,55.50
2023-02-12T23:53:52.072Z,55.67
2023-02-12T23:56:19.729Z,53.33
2023-02-12T23:58:47.650Z,50.90
